Latest Weather Observations for Sydney - Observatory Hill

IDN60901

Issued at 9:55 am EST Saturday 30 August 2014 (issued every 10 minutes, with the page automatically refreshed every 10 minutes)

About weather observations | Map of Sydney area stations | Latest observations for Sydney area | Other Formats
Station Details ID: 066062 Name: SYDNEY (OBSERVATORY HILL) Lat: -33.86 Lon: 151.21 Height: 39.0 m
Data from the previous 72 hours. | See also: Recent months at Sydney - Observatory Hill

* Apparent temperature (App Temp) for Sydney - Observatory Hill is calculated using temperature observations collected at Sydney - Observatory Hill and wind observations collected at Fort Denison, as wind observations are not currently provided for Sydney - Observatory Hill.

Date/Time
EST
Tmp

°C
App
Tmp
°C
Dew
Point
°C
Rel
Hum
%
Delta-T

°C
Wind Press
QNH
hPa
Press
MSL
hPa
Rain
since
9 am
mm
Dir
 
Spd
km/h
Gust
km/h
Spd
kts
Gust
kts
30/09:30am 12.7 9.8 10.9 89 0.9 - 17 - 9 - 1023.8 - 0.2
30/09:00am 12.5 8.9 10.7 89 0.9 - 20 - 11 - 1023.9 1023.9 3.2
30/08:30am 12.5 8.9 10.6 88 1.0 - 20 - 11 - 1023.9 - 2.6
30/08:00am 12.3 8.6 10.2 87 1.1 - 20 - 11 - 1023.9 1023.9 2.4
30/07:30am 12.5 8.8 10.2 86 1.2 - 20 - 11 - 1023.8 - 2.0
30/07:00am 12.6 9.0 10.0 84 1.3 - 19 - 10 - 1023.5 1023.5 1.6
30/06:30am 13.1 8.8 9.5 79 1.8 - 22 - 12 - 1023.4 - 1.2
30/06:00am 13.3 8.3 9.4 77 2.0 - 26 - 14 - 1023.1 1023.1 1.2
30/05:30am 13.4 9.5 9.3 76 2.1 - 20 - 11 - 1022.8 - 1.2
30/05:00am 13.3 7.8 9.2 76 2.1 - 28 - 15 - 1022.6 1022.6 1.2
30/04:30am 13.3 7.8 9.0 75 2.2 - 28 - 15 - 1022.7 - 1.2
30/04:00am 13.5 8.3 9.0 74 2.3 - 26 - 14 - 1022.6 1022.6 1.2
30/03:30am 13.7 8.5 9.0 73 2.4 - 26 - 14 - 1022.6 - 1.2
30/03:00am 13.8 8.8 8.0 68 2.9 - 24 - 13 - 1022.7 1022.7 1.2
30/02:30am 14.0 9.0 8.2 68 2.9 - 24 - 13 - 1022.9 - 1.2
30/02:00am 13.9 9.0 8.3 69 2.8 - 24 - 13 - 1023.1 1023.1 1.2
30/01:30am 13.7 8.8 8.5 71 2.6 - 24 - 13 - 1023.3 - 1.2
30/01:00am 13.8 7.5 7.6 66 3.0 - 30 - 16 - 1023.6 1023.6 1.2
30/12:30am 14.0 8.3 6.8 62 3.5 - 26 - 14 - 1023.9 - 1.2
30/12:00am 14.1 8.4 6.5 60 3.6 - 26 - 14 - 1023.9 1023.9 1.2
 
Date/Time
EST
Tmp

°C
App
Tmp
°C
Dew
Point
°C
Rel
Hum
%
Delta-T

°C
Wind Press
QNH
hPa
Press
MSL
hPa
Rain
since
9 am
mm
Dir
 
Spd
km/h
Gust
km/h
Spd
kts
Gust
kts
29/11:30pm 14.1 9.0 6.2 59 3.8 - 22 - 12 - 1023.9 - 1.2
29/11:00pm 14.2 8.9 6.8 61 3.6 - 24 - 13 - 1024.0 1024.0 1.2
29/10:30pm 14.3 8.6 6.9 61 3.6 - 26 - 14 - 1024.2 - 1.2
29/10:00pm 14.7 8.4 5.5 54 4.3 - 28 - 15 - 1024.3 1024.3 1.2
29/09:30pm 14.3 7.9 5.4 55 4.2 - 28 - 15 - 1024.4 - 1.2
29/09:00pm 14.4 9.1 5.2 54 4.3 - 22 - 12 - 1024.4 1024.4 1.2
29/08:30pm 14.4 8.4 5.5 55 4.2 - 26 - 14 - 1024.5 - 1.2
29/08:00pm 14.6 8.6 5.4 54 4.3 - 26 - 14 - 1024.5 1024.5 1.2
29/07:30pm 14.6 8.6 5.4 54 4.4 - 26 - 14 - 1024.4 - 1.2
29/07:00pm 14.7 8.8 7.3 61 3.6 - 28 - 15 - 1024.6 1024.6 1.2
29/06:30pm 14.9 9.5 8.2 64 3.4 - 26 - 14 - 1024.5 - 1.2
29/06:00pm 15.1 9.6 7.6 61 3.7 - 26 - 14 - 1024.3 1024.3 1.2
29/05:30pm 15.0 10.6 9.1 68 3.0 - 22 - 12 - 1024.1 - 1.2
29/05:00pm 15.2 10.5 9.1 67 3.1 - 24 - 13 - 1024.0 1024.0 1.2
29/04:30pm 14.9 10.2 9.3 69 2.9 - 24 - 13 - 1023.8 - 1.2
29/04:00pm 15.5 10.8 9.4 67 3.1 - 24 - 13 - 1023.7 1023.7 1.2
29/03:30pm 15.7 10.7 9.4 66 3.3 - 26 - 14 - 1023.7 - 1.2
29/03:00pm 15.8 11.1 9.2 65 3.4 - 24 - 13 - 1024.0 1024.0 1.2
29/02:30pm 16.3 12.8 11.0 71 2.8 - 20 - 11 - 1024.1 - 1.2
29/02:00pm 17.9 13.2 10.5 62 3.9 - 26 - 14 - 1024.2 1024.2 1.2
29/01:30pm 17.0 11.7 9.9 63 3.7 - 28 - 15 - 1024.4 - 1.2
29/01:00pm 15.4 13.6 12.0 80 1.8 - 13 - 7 - 1024.7 1024.7 1.2
29/12:30pm 14.0 10.1 10.8 81 1.7 - 22 - 12 - 1025.2 - 1.0
29/12:00pm 14.3 10.8 10.9 80 1.8 - 20 - 11 - 1025.7 1025.7 1.0
29/11:30am 14.8 13.1 9.8 72 2.6 - 9 - 5 - 1025.6 - 0.8
29/11:00am 14.6 11.0 10.6 77 2.1 - 20 - 11 - 1026.1 1026.1 0.8
29/10:30am 13.8 9.8 10.4 80 1.8 - 22 - 12 - 1026.4 - 0.8
29/10:00am 13.5 10.0 10.9 84 1.4 - 20 - 11 - 1026.3 1026.3 0.8
29/09:30am 12.4 10.4 10.0 85 1.2 - 11 - 6 - 1026.7 - 0.4
29/09:00am 12.1 8.8 9.7 85 1.2 - 17 - 9 - 1026.7 1026.7 2.0
29/08:30am 11.2 6.8 8.8 85 1.2 - 22 - 12 - 1026.9 - 1.6
29/08:00am 10.9 6.5 9.0 88 0.9 - 22 - 12 - 1027.0 1027.0 1.4
29/07:30am 10.3 7.0 8.2 87 1.0 - 15 - 8 - 1026.8 - 1.2
29/07:00am 9.8 5.1 7.7 87 1.0 - 22 - 12 - 1026.1 1026.1 1.2
29/06:30am 9.7 5.3 7.6 87 1.0 - 20 - 11 - 1026.2 - 1.2
29/06:00am 9.7 5.4 7.8 88 0.9 - 20 - 11 - 1026.2 1026.2 1.2
29/05:30am 9.6 4.8 7.5 87 1.0 - 22 - 12 - 1025.9 - 1.0
29/05:00am 9.4 5.1 7.2 86 1.0 - 19 - 10 - 1025.7 1025.7 1.0
29/04:30am 9.4 5.0 7.2 86 1.0 - 20 - 11 - 1025.7 - 1.0
29/04:00am 9.7 6.6 7.3 85 1.1 - 13 - 7 - 1025.8 1025.8 1.0
29/03:30am 10.1 6.0 7.9 86 1.1 - 19 - 10 - 1025.9 - 0.8
29/03:00am 10.0 5.9 7.8 86 1.1 - 19 - 10 - 1026.0 1026.0 0.8
29/02:30am 10.4 6.2 8.2 86 1.1 - 20 - 11 - 1026.3 - 0.8
29/02:00am 10.7 6.7 8.3 85 1.2 - 19 - 10 - 1026.3 1026.3 0.8
29/01:30am 11.1 8.3 8.5 84 1.3 - 13 - 7 - 1026.6 - 0.8
29/01:00am 11.1 7.8 8.1 82 1.5 - 15 - 8 - 1027.0 1027.0 0.0
29/12:30am 11.2 7.5 8.1 81 1.5 - 17 - 9 - 1027.2 - 0.0
29/12:00am 11.5 7.4 8.0 79 1.7 - 19 - 10 - 1027.5 1027.5 0.0
 
Date/Time
EST
Tmp

°C
App
Tmp
°C
Dew
Point
°C
Rel
Hum
%
Delta-T

°C
Wind Press
QNH
hPa
Press
MSL
hPa
Rain
since
9 am
mm
Dir
 
Spd
km/h
Gust
km/h
Spd
kts
Gust
kts
28/11:30pm 11.6 7.3 7.7 77 1.9 - 20 - 11 - 1027.5 - 0.0
28/11:00pm 12.4 8.1 7.7 73 2.3 - 20 - 11 - 1027.5 1027.5 0.0
28/10:30pm 13.3 10.4 8.0 70 2.6 - 13 - 7 - 1027.5 - 0.0
28/10:00pm 14.3 11.6 7.4 63 3.4 - 11 - 6 - 1027.7 1027.7 0.0
28/09:30pm 14.6 11.1 7.4 62 3.6 - 15 - 8 - 1027.8 - 0.0
28/09:00pm 14.9 12.2 7.2 60 3.8 - 11 - 6 - 1027.8 1027.8 0.0
28/08:30pm 14.9 12.0 6.7 58 4.0 - 11 - 6 - 1027.6 - 0.0
28/08:00pm 14.5 11.2 6.3 58 3.9 - 13 - 7 - 1027.5 1027.5 0.0
28/07:30pm 14.7 11.0 6.3 57 4.1 - 15 - 8 - 1027.5 - 0.0
28/07:00pm 14.8 10.8 6.6 58 4.0 - 17 - 9 - 1027.4 1027.4 0.0
28/06:30pm 14.8 11.2 6.6 58 4.0 - 15 - 8 - 1027.2 - 0.0
28/06:00pm 15.1 11.0 6.1 55 4.3 - 17 - 9 - 1027.0 1027.0 0.0
28/05:30pm 15.5 11.5 6.8 56 4.3 - 17 - 9 - 1026.9 - 0.0
28/05:00pm 15.9 9.9 6.9 55 4.4 - 28 - 15 - 1026.8 1026.8 0.0
28/04:30pm 16.3 10.7 7.3 55 4.5 - 26 - 14 - 1026.4 - 0.0
28/04:00pm 17.0 10.6 7.1 52 4.9 - 30 - 16 - 1026.2 1026.2 0.0
28/03:30pm 17.6 11.4 7.9 53 4.9 - 30 - 16 - 1026.1 - 0.0
28/03:00pm 17.8 12.3 7.5 51 5.2 - 26 - 14 - 1025.9 1025.9 0.0
28/02:30pm 18.5 12.5 7.0 47 5.8 - 28 - 15 - 1025.8 - 0.0
28/02:00pm 19.0 13.2 7.8 48 5.7 - 28 - 15 - 1025.7 1025.7 0.0
28/01:30pm 18.9 12.4 8.0 49 5.6 - 32 - 17 - 1025.7 - 0.0
28/01:00pm 18.0 12.1 9.1 56 4.6 - 30 - 16 - 1025.5 1025.5 0.0
28/12:30pm 18.8 13.0 9.3 54 5.0 - 30 - 16 - 1025.7 - 0.0
28/12:00pm 18.0 11.9 9.6 58 4.4 - 32 - 17 - 1026.0 1026.0 0.0
28/11:30am 18.4 12.8 8.7 53 5.0 - 28 - 15 - 1026.4 - 0.0
28/11:00am 18.3 13.1 10.2 59 4.3 - 28 - 15 - 1026.6 1026.6 0.0
28/10:30am 17.2 12.5 10.8 66 3.4 - 26 - 14 - 1026.8 - 0.0
28/10:00am 17.6 13.2 10.5 63 3.8 - 24 - 13 - 1026.7 1026.7 0.0
28/09:30am 16.9 13.3 10.5 66 3.4 - 20 - 11 - 1026.6 - 0.0
28/09:00am 15.3 12.2 12.1 81 1.7 - 20 - 11 - 1026.8 1026.8 15.2
28/08:30am 14.5 13.5 12.2 86 1.2 - 9 - 5 - 1026.7 - 15.2
28/08:00am 13.8 11.9 11.8 88 1.1 - 13 - 7 - 1026.4 1026.4 15.2
28/07:30am 13.3 10.5 11.5 89 1.0 - 17 - 9 - 1026.2 - 15.0
28/07:00am 13.1 11.0 11.3 89 0.9 - 13 - 7 - 1026.0 1026.0 14.0
28/06:30am 13.2 10.8 11.3 88 1.0 - 15 - 8 - 1025.9 - 8.8
28/06:00am 13.0 10.5 11.2 89 0.9 - 15 - 8 - 1025.6 1025.6 7.6
28/05:30am 12.9 11.9 11.0 88 1.0 - 7 - 4 - 1025.0 - 7.6
28/05:00am 13.3 11.0 11.7 90 0.9 - 15 - 8 - 1024.9 1024.9 6.6
28/04:30am 13.1 10.0 11.5 90 0.9 - 19 - 10 - 1024.7 - 6.4
28/04:00am 12.6 9.1 10.8 89 0.9 - 20 - 11 - 1025.0 1025.0 5.6
28/03:30am 12.5 8.9 10.6 88 1.0 - 20 - 11 - 1025.0 - 3.6
28/03:00am 12.4 9.2 10.0 85 1.2 - 17 - 9 - 1024.8 1024.8 1.4
28/02:30am 12.6 10.2 10.0 84 1.3 - 13 - 7 - 1024.8 - 1.4
28/02:00am 13.1 10.7 9.9 81 1.6 - 13 - 7 - 1024.9 1024.9 1.4
28/01:30am 14.1 12.3 10.9 81 1.7 - 11 - 6 - 1024.9 - 1.4
28/01:00am 13.2 10.1 10.2 82 1.5 - 17 - 9 - 1025.2 1025.2 1.4
28/12:30am 13.1 10.4 9.0 76 2.1 - 13 - 7 - 1025.4 - 1.4
28/12:00am 15.1 11.8 9.5 69 2.9 - 17 - 9 - 1025.4 1025.4 1.4
 
Date/Time
EST
Tmp

°C
App
Tmp
°C
Dew
Point
°C
Rel
Hum
%
Delta-T

°C
Wind Press
QNH
hPa
Press
MSL
hPa
Rain
since
9 am
mm
Dir
 
Spd
km/h
Gust
km/h
Spd
kts
Gust
kts
27/11:30pm 14.9 11.5 9.1 68 3.0 - 17 - 9 - 1025.5 - 1.4
27/11:00pm 14.7 10.7 9.1 69 2.8 - 20 - 11 - 1025.8 1025.8 1.4
27/10:30pm 13.6 10.3 9.5 76 2.1 - 17 - 9 - 1025.9 - 1.4
27/10:00pm 13.1 9.6 8.8 75 2.1 - 17 - 9 - 1026.0 1026.0 1.4
27/09:30pm 14.2 11.8 8.8 70 2.7 - 11 - 6 - 1026.0 - 1.4
27/09:00pm 15.0 12.5 8.0 63 3.5 - 11 - 6 - 1026.0 1026.0 1.4
27/08:30pm 14.9 11.1 7.5 61 3.7 - 17 - 9 - 1026.0 - 1.4
27/08:00pm 15.0 10.6 7.3 60 3.8 - 20 - 11 - 1026.0 1026.0 1.4
27/07:30pm 15.2 10.9 7.7 61 3.7 - 20 - 11 - 1025.8 - 1.4
27/07:00pm 15.4 9.5 7.7 60 3.8 - 28 - 15 - 1025.7 1025.7 1.4
27/06:30pm 15.7 9.8 7.5 58 4.1 - 28 - 15 - 1025.3 - 1.4
27/06:00pm 15.8 9.8 8.8 63 3.6 - 30 - 16 - 1025.2 1025.2 1.4
27/05:30pm 16.0 10.1 9.2 64 3.5 - 30 - 16 - 1024.9 - 1.4
27/05:00pm 16.2 10.1 10.3 68 3.1 - 33 - 18 - 1024.8 1024.8 1.4
27/04:30pm 15.5 9.7 10.9 74 2.5 - 32 - 17 - 1024.4 - 1.4
27/04:00pm 15.9 10.5 10.9 72 2.7 - 30 - 16 - 1024.2 1024.2 1.4
27/03:30pm 18.7 12.6 10.3 58 4.5 - 33 - 18 - 1024.0 - 0.2
27/03:00pm 18.7 13.2 9.2 54 5.0 - 28 - 15 - 1023.9 1023.9 0.2
27/02:30pm 19.5 13.0 10.2 55 5.0 - 35 - 19 - 1023.8 - 0.2
27/02:00pm 18.8 12.5 9.0 53 5.1 - 32 - 17 - 1023.8 1023.8 0.2
27/01:30pm 18.3 12.3 10.2 59 4.3 - 32 - 17 - 1023.9 - 0.2
27/01:00pm 18.9 14.4 11.5 62 4.0 - 26 - 14 - 1024.1 1024.1 0.2
27/12:30pm 16.8 13.4 11.3 70 3.0 - 20 - 11 - 1024.3 - 0.2
27/12:00pm 16.6 13.2 11.1 70 2.9 - 20 - 11 - 1024.9 1024.9 0.2
27/11:30am 18.0 11.2 10.6 62 4.0 - 37 - 20 - 1025.0 - 0.0
27/11:00am 18.0 12.9 11.8 67 3.4 - 30 - 16 - 1025.1 1025.1 0.0
27/10:30am 17.6 13.0 12.3 71 2.9 - 28 - 15 - 1025.5 - 0.0
27/10:00am 16.7 12.4 12.0 74 2.6 - 26 - 14 - 1025.6 1025.6 0.0

Latest Capital City Observations: Canberra | Sydney | Melbourne | Brisbane | Adelaide | Perth | Hobart | Darwin

Other Formats:

Comma delimited format used in spreadsheet applications
http://www.bom.gov.au/fwo/IDN60901/IDN60901.94768.axf

JavaScript Object Notation format (JSON) in row-major order
http://www.bom.gov.au/fwo/IDN60901/IDN60901.94768.json